createdAt,value
2018-11-07T00:01:12.701Z,72.85
2018-11-07T00:03:42.398Z,81.53
2018-11-07T00:06:11.752Z,77.83
2018-11-07T00:08:41.277Z,83.03
2018-11-07T00:11:10.715Z,82.20
2018-11-07T00:13:40.076Z,98.55
2018-11-07T00:16:09.468Z,89.55
2018-11-07T00:18:39.325Z,88.40
2018-11-07T00:21:08.739Z,92.47
2018-11-07T00:23:38.225Z,86.20
2018-11-07T00:26:07.858Z,93.17
2018-11-07T00:28:38.080Z,90.67
2018-11-07T00:31:07.426Z,74.42
2018-11-07T00:33:36.927Z,89.55
2018-11-07T00:36:07.190Z,94.42
2018-11-07T00:38:36.514Z,93.78
2018-11-07T00:41:06.058Z,91.32
2018-11-07T00:43:35.454Z,98.15
2018-11-07T00:46:05.042Z,85.00
2018-11-07T00:48:34.382Z,93.20
2018-11-07T00:51:03.724Z,85.72
2018-11-07T00:53:33.295Z,89.58
2018-11-07T00:56:02.550Z,89.00
2018-11-07T00:58:32.017Z,82.90
2018-11-07T01:01:01.437Z,84.87
2018-11-07T01:03:30.761Z,88.62
2018-11-07T01:06:00.084Z,102.42
2018-11-07T01:08:29.561Z,84.13
2018-11-07T01:10:59.091Z,94.15
2018-11-07T01:13:28.416Z,85.57
2018-11-07T01:15:57.729Z,79.22
2018-11-07T01:18:27.017Z,86.53
2018-11-07T01:20:56.363Z,92.35
2018-11-07T01:23:25.743Z,82.82
2018-11-07T01:25:55.100Z,72.80
2018-11-07T01:28:25.117Z,69.22
2018-11-07T01:30:54.483Z,79.43
2018-11-07T01:33:23.799Z,97.72
2018-11-07T01:35:53.145Z,91.00
2018-11-07T01:38:23.618Z,88.85
2018-11-07T01:40:52.932Z,90.40
2018-11-07T01:43:22.253Z,91.87
2018-11-07T01:45:51.758Z,84.50
2018-11-07T01:48:21.119Z,84.70
2018-11-07T01:50:50.682Z,91.05
2018-11-07T01:53:20.009Z,94.85
2018-11-07T01:55:49.466Z,77.12
2018-11-07T01:58:18.920Z,81.23
2018-11-07T02:00:48.319Z,82.53
2018-11-07T02:03:17.805Z,90.63
2018-11-07T02:05:47.234Z,79.45
2018-11-07T02:08:16.893Z,79.70
2018-11-07T02:10:46.194Z,81.57
2018-11-07T02:13:15.541Z,86.05
2018-11-07T02:15:44.958Z,82.33
2018-11-07T02:18:14.329Z,72.65
2018-11-07T02:20:43.748Z,99.40
2018-11-07T02:23:13.113Z,89.07
2018-11-07T02:25:42.482Z,85.70
2018-11-07T02:28:12.027Z,88.90
2018-11-07T02:30:41.435Z,89.07
2018-11-07T02:33:10.773Z,95.20
2018-11-07T02:35:46.677Z,91.70
2018-11-07T02:38:15.994Z,86.55
2018-11-07T02:40:45.278Z,85.05
2018-11-07T02:43:15.070Z,93.75
2018-11-07T02:45:44.429Z,84.52
2018-11-07T02:48:13.757Z,90.95
2018-11-07T02:50:43.102Z,78.35
2018-11-07T02:53:12.497Z,91.72
2018-11-07T02:55:41.792Z,89.47
2018-11-07T02:58:11.234Z,101.50
2018-11-07T03:00:40.676Z,100.07
2018-11-07T03:03:10.103Z,88.33
2018-11-07T03:05:40.193Z,83.95
2018-11-07T03:08:09.597Z,90.95
2018-11-07T03:10:39.348Z,86.57
2018-11-07T03:13:08.661Z,102.67
2018-11-07T03:15:37.992Z,78.67
2018-11-07T03:18:07.388Z,89.10
2018-11-07T03:20:37.210Z,91.97
2018-11-07T03:23:06.723Z,100.33
2018-11-07T03:25:36.021Z,97.25
2018-11-07T03:28:06.410Z,98.15
2018-11-07T03:30:35.757Z,84.07
2018-11-07T03:33:05.908Z,100.92
2018-11-07T03:35:36.004Z,83.85
2018-11-07T03:38:05.431Z,79.65
2018-11-07T03:40:35.018Z,90.12
2018-11-07T03:43:04.878Z,91.85
2018-11-07T03:45:39.315Z,101.78
2018-11-07T03:48:09.453Z,94.07
2018-11-07T03:50:40.025Z,96.05
2018-11-07T03:53:09.412Z,78.90
2018-11-07T03:55:38.804Z,82.22
2018-11-07T03:58:08.680Z,89.83
2018-11-07T04:00:38.217Z,79.75
2018-11-07T04:03:07.586Z,76.57
2018-11-07T04:05:36.946Z,83.90
2018-11-07T04:08:06.565Z,90.32
2018-11-07T04:10:35.917Z,87.05
2018-11-07T04:13:05.769Z,78.52
2018-11-07T04:15:35.101Z,89.80
2018-11-07T04:18:04.550Z,75.55
2018-11-07T04:20:34.018Z,90.72
2018-11-07T04:23:03.602Z,90.77
2018-11-07T04:25:33.016Z,86.60
2018-11-07T04:28:02.575Z,98.60
2018-11-07T04:30:32.871Z,89.03
2018-11-07T04:33:02.179Z,82.97
2018-11-07T04:35:31.530Z,86.90
2018-11-07T04:38:01.089Z,95.77
2018-11-07T04:40:30.406Z,96.40
2018-11-07T04:42:59.895Z,100.40
2018-11-07T04:45:30.026Z,85.12
2018-11-07T04:47:59.530Z,95.65
2018-11-07T04:50:28.814Z,97.30
2018-11-07T04:52:58.099Z,85.50
2018-11-07T04:55:27.482Z,92.65
2018-11-07T04:57:57.094Z,98.40
2018-11-07T05:00:26.530Z,95.72
2018-11-07T05:02:55.829Z,102.07
2018-11-07T05:05:25.178Z,109.27
2018-11-07T05:07:54.696Z,103.02
2018-11-07T05:10:24.215Z,95.17
2018-11-07T05:12:53.607Z,95.40
2018-11-07T05:15:22.994Z,92.62
2018-11-07T05:17:52.348Z,113.37
2018-11-07T05:20:21.671Z,100.02
2018-11-07T05:22:51.135Z,102.30
2018-11-07T05:25:20.457Z,102.78
2018-11-07T05:27:49.779Z,108.75
2018-11-07T05:30:19.322Z,105.58
2018-11-07T05:32:48.634Z,116.47
2018-11-07T05:35:17.907Z,109.95
2018-11-07T05:37:47.358Z,112.15
2018-11-07T05:40:16.672Z,103.12
2018-11-07T05:42:46.134Z,119.47
2018-11-07T05:45:16.335Z,120.47
2018-11-07T05:47:45.621Z,106.67
2018-11-07T05:50:15.061Z,115.72
2018-11-07T05:52:44.594Z,115.90
2018-11-07T05:55:14.975Z,100.20
2018-11-07T05:57:44.646Z,103.25
2018-11-07T06:00:13.986Z,110.03
2018-11-07T06:02:43.428Z,107.30
2018-11-07T06:05:13.020Z,105.43
2018-11-07T06:07:42.541Z,108.20
2018-11-07T06:10:13.048Z,116.15
2018-11-07T06:12:42.743Z,102.67
2018-11-07T06:15:12.581Z,123.65
2018-11-07T06:17:41.983Z,95.65
2018-11-07T06:20:12.021Z,122.35
2018-11-07T06:22:41.380Z,109.97
2018-11-07T06:25:10.879Z,116.88
2018-11-07T06:27:40.364Z,103.72
2018-11-07T06:30:12.231Z,98.58
2018-11-07T06:32:42.365Z,110.05
2018-11-07T06:35:12.433Z,111.65
2018-11-07T06:37:41.741Z,125.42
2018-11-07T06:40:12.070Z,103.60
2018-11-07T06:42:42.781Z,115.00
2018-11-07T06:45:12.189Z,106.58
2018-11-07T06:47:41.609Z,113.62
2018-11-07T06:50:14.391Z,109.03
2018-11-07T06:52:44.314Z,104.45
2018-11-07T06:55:13.757Z,104.25
2018-11-07T06:57:44.033Z,108.12
2018-11-07T07:00:16.297Z,114.30
2018-11-07T07:02:46.671Z,104.95
2018-11-07T07:05:16.337Z,122.13
2018-11-07T07:07:45.638Z,109.78
2018-11-07T07:10:17.244Z,106.30
2018-11-07T07:12:46.694Z,123.05
2018-11-07T07:15:20.033Z,113.17
2018-11-07T07:17:49.603Z,125.33
2018-11-07T07:20:20.686Z,126.15
2018-11-07T07:22:50.427Z,123.28
2018-11-07T07:25:19.778Z,106.92
2018-11-07T07:27:50.016Z,121.20
2018-11-07T07:30:20.730Z,117.90
2018-11-07T07:32:50.629Z,121.85
2018-11-07T07:35:20.585Z,122.28
2018-11-07T07:37:49.914Z,137.07
2018-11-07T07:41:23.197Z,137.80
2018-11-07T07:43:52.867Z,121.25
2018-11-07T07:46:22.217Z,113.42
2018-11-07T07:48:52.183Z,133.27
2018-11-07T07:51:21.773Z,103.40
2018-11-07T07:53:51.150Z,106.40
2018-11-07T07:56:20.856Z,109.90
2018-11-07T07:58:50.262Z,108.85
2018-11-07T08:01:19.677Z,110.45
2018-11-07T08:03:49.223Z,92.50
2018-11-07T08:06:18.653Z,92.88
2018-11-07T08:08:48.266Z,100.85
2018-11-07T08:11:17.590Z,100.00
2018-11-07T08:13:46.964Z,99.97
2018-11-07T08:16:16.249Z,91.90
2018-11-07T08:18:45.595Z,81.37
2018-11-07T08:21:15.049Z,81.20
2018-11-07T08:23:44.359Z,94.40
2018-11-07T08:26:13.701Z,78.70
2018-11-07T08:28:43.131Z,89.22
2018-11-07T08:31:12.537Z,79.97
2018-11-07T08:33:42.150Z,83.78
2018-11-07T08:36:11.441Z,81.05
2018-11-07T08:38:40.737Z,81.95
2018-11-07T08:41:10.164Z,90.53
2018-11-07T08:43:39.590Z,76.15
2018-11-07T08:46:09.045Z,83.00
2018-11-07T08:48:38.865Z,79.12
2018-11-07T08:51:08.218Z,76.28
2018-11-07T08:53:42.684Z,64.75
2018-11-07T08:56:12.144Z,81.90
2018-11-07T08:58:41.538Z,77.45
2018-11-07T09:01:11.092Z,70.80
2018-11-07T09:03:40.504Z,70.15
2018-11-07T09:06:09.903Z,70.00
2018-11-07T09:08:39.289Z,76.43
2018-11-07T09:11:08.654Z,68.67
2018-11-07T09:13:38.034Z,66.33
2018-11-07T09:16:07.969Z,63.23
2018-11-07T09:18:39.526Z,67.25
2018-11-07T09:21:09.028Z,61.98
2018-11-07T09:23:38.468Z,60.87
2018-11-07T09:26:08.080Z,57.90
2018-11-07T09:28:37.592Z,62.77
2018-11-07T09:31:07.023Z,62.67
2018-11-07T09:33:36.656Z,61.90
2018-11-07T09:36:06.240Z,67.83
2018-11-07T09:38:35.772Z,57.87
2018-11-07T09:41:05.382Z,60.00
2018-11-07T09:43:34.842Z,52.83
2018-11-07T09:46:04.425Z,56.07
2018-11-07T09:48:33.906Z,52.50
2018-11-07T09:51:03.557Z,51.33
2018-11-07T09:53:32.990Z,54.23
2018-11-07T09:56:02.309Z,54.20
2018-11-07T09:58:31.873Z,59.23
2018-11-07T10:01:01.555Z,55.13
2018-11-07T10:03:31.198Z,53.13
2018-11-07T10:06:01.561Z,48.80
2018-11-07T10:08:31.029Z,46.20
2018-11-07T10:11:00.884Z,48.50
2018-11-07T10:13:30.313Z,55.60
2018-11-07T10:15:59.760Z,43.70
2018-11-07T10:18:29.988Z,51.83
2018-11-07T10:20:59.724Z,42.63
2018-11-07T10:23:29.141Z,52.37
2018-11-07T10:25:58.727Z,48.27
2018-11-07T10:28:28.253Z,38.90
2018-11-07T10:30:57.658Z,46.40
2018-11-07T10:33:26.980Z,40.03
2018-11-07T10:35:56.488Z,40.10
2018-11-07T10:38:25.929Z,47.97
2018-11-07T10:40:58.340Z,42.03
2018-11-07T10:43:27.878Z,50.73
2018-11-07T10:45:58.182Z,52.80
2018-11-07T10:48:28.873Z,49.70
2018-11-07T10:50:58.330Z,50.93
2018-11-07T10:53:28.093Z,45.20
2018-11-07T10:55:57.946Z,43.50
2018-11-07T10:58:27.595Z,47.00
2018-11-07T11:01:02.141Z,44.77
2018-11-07T11:03:32.923Z,48.40
2018-11-07T11:06:02.334Z,52.17
2018-11-07T11:08:31.759Z,47.20
2018-11-07T11:11:01.163Z,55.17
2018-11-07T11:13:30.562Z,48.17
2018-11-07T11:16:00.092Z,53.10
2018-11-07T11:18:29.590Z,48.00
2018-11-07T11:20:59.169Z,45.13
2018-11-07T11:23:28.500Z,43.83
2018-11-07T11:25:57.883Z,45.37
2018-11-07T11:28:27.155Z,50.13
2018-11-07T11:30:56.451Z,50.60
2018-11-07T11:33:25.893Z,37.00
2018-11-07T11:35:55.207Z,37.30
2018-11-07T11:38:24.580Z,48.30
2018-11-07T11:40:54.530Z,40.00
2018-11-07T11:43:24.631Z,48.90
2018-11-07T11:45:54.638Z,38.07
2018-11-07T11:48:24.483Z,41.97
2018-11-07T11:51:00.191Z,36.10
2018-11-07T11:53:29.931Z,35.37
2018-11-07T11:55:59.450Z,42.80
2018-11-07T11:58:28.823Z,50.80
2018-11-07T12:00:58.198Z,36.57
2018-11-07T12:03:27.477Z,39.70
2018-11-07T12:05:56.780Z,45.83
2018-11-07T12:08:26.337Z,38.87
2018-11-07T12:10:55.639Z,32.37
2018-11-07T12:13:25.322Z,34.80
2018-11-07T12:15:55.391Z,56.83
2018-11-07T12:18:25.487Z,39.73
2018-11-07T12:20:55.506Z,36.93
2018-11-07T12:23:28.566Z,36.60
2018-11-07T12:25:58.495Z,41.13
2018-11-07T12:28:28.176Z,36.00
2018-11-07T12:30:57.843Z,35.60
2018-11-07T12:33:27.252Z,36.13
2018-11-07T12:35:56.628Z,46.03
2018-11-07T12:38:26.056Z,35.90
2018-11-07T12:40:56.487Z,38.63
2018-11-07T12:43:26.728Z,35.33
2018-11-07T12:45:57.187Z,41.07
2018-11-07T12:48:26.692Z,39.73
2018-11-07T12:50:56.095Z,35.83
2018-11-07T12:53:25.981Z,36.97
2018-11-07T12:55:55.803Z,35.27
2018-11-07T12:58:25.288Z,46.20
2018-11-07T13:00:54.628Z,37.53
2018-11-07T13:03:25.056Z,47.03
2018-11-07T13:05:54.714Z,43.20
2018-11-07T13:08:24.264Z,43.10
2018-11-07T13:10:53.818Z,37.50
2018-11-07T13:13:23.153Z,42.30
2018-11-07T13:15:53.850Z,44.63
2018-11-07T13:18:23.209Z,42.70
2018-11-07T13:20:52.628Z,48.10
2018-11-07T13:23:22.111Z,45.47
2018-11-07T13:25:51.802Z,49.03
2018-11-07T13:28:22.447Z,46.03
2018-11-07T13:30:52.551Z,49.17
2018-11-07T13:33:21.879Z,52.33
2018-11-07T13:35:51.321Z,49.10
2018-11-07T13:38:21.016Z,50.87
2018-11-07T13:40:50.354Z,44.40
2018-11-07T13:43:21.788Z,51.70
2018-11-07T13:45:51.191Z,50.57
2018-11-07T13:48:20.455Z,49.30
2018-11-07T13:50:49.858Z,57.60
2018-11-07T13:53:19.569Z,58.43
2018-11-07T13:55:48.782Z,55.63
2018-11-07T13:58:18.444Z,65.53
2018-11-07T14:00:47.841Z,57.70
2018-11-07T14:03:17.431Z,59.10
2018-11-07T14:05:47.092Z,62.07
2018-11-07T14:08:16.375Z,56.50
2018-11-07T14:10:45.762Z,55.17
2018-11-07T14:13:17.088Z,52.47
2018-11-07T14:15:46.403Z,51.23
2018-11-07T14:18:15.739Z,55.83
2018-11-07T14:20:45.171Z,51.30
2018-11-07T14:23:14.551Z,53.37
2018-11-07T14:25:43.854Z,64.47
2018-11-07T14:28:13.371Z,59.37
2018-11-07T14:30:42.651Z,60.70
2018-11-07T14:33:12.853Z,63.50
2018-11-07T14:35:42.215Z,65.00
2018-11-07T14:38:11.518Z,60.67
2018-11-07T14:40:40.964Z,56.57
2018-11-07T14:43:10.307Z,56.60
2018-11-07T14:45:39.764Z,55.03
2018-11-07T14:51:13.581Z,66.17
2018-11-07T14:53:42.831Z,72.03
2018-11-07T14:56:12.039Z,81.87
2018-11-07T14:58:41.794Z,65.20
2018-11-07T15:01:11.118Z,62.43
2018-11-07T15:03:40.393Z,68.80
2018-11-07T15:06:10.151Z,64.00
2018-11-07T15:08:40.459Z,60.10
2018-11-07T15:11:09.826Z,63.67
2018-11-07T15:13:39.125Z,62.40
2018-11-07T15:16:08.353Z,59.07
2018-11-07T15:18:37.659Z,57.40
2018-11-07T15:21:06.911Z,58.70
2018-11-07T15:23:36.332Z,65.70
2018-11-07T15:26:05.940Z,58.70
2018-11-07T15:28:35.455Z,65.03
2018-11-07T15:31:05.080Z,57.57
2018-11-07T15:33:34.768Z,58.93
2018-11-07T15:36:04.202Z,54.67
2018-11-07T15:38:33.553Z,57.77
2018-11-07T15:41:03.038Z,58.17
2018-11-07T15:43:32.512Z,48.80
2018-11-07T15:46:01.775Z,52.93
2018-11-07T15:52:01.721Z,49.23
2018-11-07T15:54:30.980Z,58.67
2018-11-07T15:57:00.417Z,57.63
2018-11-07T15:59:29.727Z,74.40
2018-11-07T16:01:59.243Z,61.67
2018-11-07T16:04:28.685Z,68.77
2018-11-07T16:06:58.313Z,59.03
2018-11-07T16:09:27.795Z,51.87
2018-11-07T16:11:57.573Z,54.43
2018-11-07T16:14:26.971Z,58.60
2018-11-07T16:16:57.250Z,56.37
2018-11-07T16:19:26.711Z,56.87
2018-11-07T16:21:56.010Z,64.53
2018-11-07T16:24:25.287Z,52.20
2018-11-07T16:26:54.662Z,54.50
2018-11-07T16:29:24.209Z,50.73
2018-11-07T16:31:53.491Z,51.20
2018-11-07T16:34:22.949Z,55.37
2018-11-07T16:36:52.278Z,61.03
2018-11-07T16:39:21.640Z,58.57
2018-11-07T16:41:51.202Z,55.20
2018-11-07T16:44:20.294Z,53.10
2018-11-07T16:46:49.527Z,56.70
2018-11-07T16:49:20.178Z,59.17
2018-11-07T16:51:49.503Z,64.57
2018-11-07T16:54:21.059Z,50.90
2018-11-07T16:56:50.669Z,59.03
2018-11-07T16:59:20.987Z,55.30
2018-11-07T17:01:50.219Z,55.33
2018-11-07T17:04:19.571Z,51.83
2018-11-07T17:06:51.985Z,50.70
2018-11-07T17:09:21.630Z,55.60
2018-11-07T17:11:50.936Z,57.27
2018-11-07T17:14:20.234Z,56.67
2018-11-07T17:16:49.474Z,67.47
2018-11-07T17:19:19.416Z,56.97
2018-11-07T17:21:48.851Z,58.90
2018-11-07T17:24:18.229Z,56.83
2018-11-07T17:26:47.498Z,65.30
2018-11-07T17:29:16.876Z,62.83
2018-11-07T17:31:46.182Z,65.00
2018-11-07T17:34:15.468Z,65.63
2018-11-07T17:36:44.795Z,57.50
2018-11-07T17:39:14.121Z,61.83
2018-11-07T17:41:43.479Z,59.57
2018-11-07T17:44:12.906Z,89.37
2018-11-07T17:46:42.262Z,58.90
2018-11-07T17:49:12.155Z,65.20
2018-11-07T17:51:41.616Z,66.43
2018-11-07T17:54:10.938Z,61.63
2018-11-07T17:56:40.339Z,74.10
2018-11-07T17:59:09.768Z,64.03
2018-11-07T18:01:39.154Z,61.37
2018-11-07T18:04:08.674Z,60.33
2018-11-07T18:06:37.980Z,65.33
2018-11-07T18:09:08.184Z,61.60
2018-11-07T18:11:38.691Z,63.57
2018-11-07T18:14:08.771Z,68.73
2018-11-07T18:16:38.072Z,64.53
2018-11-07T18:19:07.864Z,67.07
2018-11-07T18:21:37.942Z,66.43
2018-11-07T18:24:07.300Z,65.50
2018-11-07T18:26:36.685Z,71.50
2018-11-07T18:29:08.203Z,69.70
2018-11-07T18:31:38.447Z,67.00
2018-11-07T18:34:07.677Z,74.47
2018-11-07T18:36:37.055Z,74.20
2018-11-07T18:39:09.617Z,77.43
2018-11-07T18:41:39.289Z,75.13
2018-11-07T18:44:08.786Z,74.87
2018-11-07T18:46:38.604Z,76.10
2018-11-07T18:49:08.700Z,73.97
2018-11-07T18:51:38.074Z,80.43
2018-11-07T18:54:08.089Z,72.40
2018-11-07T18:56:37.421Z,81.07
2018-11-07T18:59:06.717Z,77.20
2018-11-07T19:01:36.460Z,78.60
2018-11-07T19:04:05.783Z,83.47
2018-11-07T19:06:35.542Z,80.03
2018-11-07T19:09:06.305Z,78.83
2018-11-07T19:11:35.546Z,80.00
2018-11-07T19:14:04.889Z,78.33
2018-11-07T19:16:34.706Z,80.20
2018-11-07T19:19:04.062Z,79.17
2018-11-07T19:21:33.473Z,81.20
2018-11-07T19:24:02.821Z,74.40
2018-11-07T19:26:32.398Z,74.17
2018-11-07T19:29:01.622Z,77.10
2018-11-07T19:31:31.070Z,73.63
2018-11-07T19:34:00.636Z,76.50
2018-11-07T19:36:30.070Z,74.00
2018-11-07T19:39:00.924Z,76.03
2018-11-07T19:41:30.250Z,68.90
2018-11-07T19:43:59.553Z,75.60
2018-11-07T19:46:28.833Z,67.77
2018-11-07T19:48:58.027Z,73.27
2018-11-07T19:51:27.360Z,75.20
2018-11-07T19:53:56.614Z,81.40
2018-11-07T19:56:26.121Z,74.73
2018-11-07T19:58:55.631Z,85.17
2018-11-07T20:01:24.931Z,78.83
2018-11-07T20:03:54.258Z,85.43
2018-11-07T20:06:23.573Z,82.43
2018-11-07T20:08:52.854Z,72.10
2018-11-07T20:11:22.112Z,70.57
2018-11-07T20:13:51.350Z,75.70
2018-11-07T20:16:20.732Z,81.70
2018-11-07T20:18:49.961Z,71.80
2018-11-07T20:21:19.519Z,67.60
2018-11-07T20:23:49.594Z,83.83
2018-11-07T20:26:19.888Z,74.20
2018-11-07T20:28:49.230Z,74.83
2018-11-07T20:31:19.041Z,72.03
2018-11-07T20:33:49.295Z,67.33
2018-11-07T20:36:18.682Z,67.80
2018-11-07T20:38:47.899Z,73.30
2018-11-07T20:41:17.129Z,70.13
2018-11-07T20:43:46.599Z,65.90
2018-11-07T20:46:15.845Z,66.27
2018-11-07T20:48:46.189Z,81.63
2018-11-07T20:51:15.712Z,83.17
2018-11-07T20:53:44.997Z,99.93
2018-11-07T20:56:14.253Z,77.23
2018-11-07T20:58:43.532Z,84.47
2018-11-07T21:01:12.832Z,76.00
2018-11-07T21:03:42.069Z,85.20
2018-11-07T21:06:12.047Z,81.43
2018-11-07T21:08:42.363Z,74.23
2018-11-07T21:11:12.738Z,81.20
2018-11-07T21:13:43.022Z,79.90
2018-11-07T21:16:12.315Z,73.97
2018-11-07T21:18:41.745Z,78.57
2018-11-07T21:21:11.155Z,92.27
2018-11-07T21:23:40.407Z,78.90
2018-11-07T21:26:09.706Z,88.57
2018-11-07T21:28:39.065Z,85.03
2018-11-07T21:31:08.433Z,92.63
2018-11-07T21:33:37.662Z,94.97
2018-11-07T21:36:07.001Z,85.67
2018-11-07T21:38:40.694Z,88.50
2018-11-07T21:41:10.469Z,90.15
2018-11-07T21:43:40.490Z,92.53
2018-11-07T21:46:09.885Z,90.63
2018-11-07T21:48:40.322Z,92.83
2018-11-07T21:51:09.862Z,98.13
2018-11-07T21:53:39.357Z,92.00
2018-11-07T21:56:11.421Z,94.40
2018-11-07T21:58:42.101Z,86.50
2018-11-07T22:01:11.779Z,102.63
2018-11-07T22:03:41.245Z,89.60
2018-11-07T22:06:11.287Z,103.73
2018-11-07T22:08:40.796Z,107.27
2018-11-07T22:11:10.259Z,104.93
2018-11-07T22:13:39.764Z,98.17
2018-11-07T22:16:09.024Z,107.50
2018-11-07T22:18:38.408Z,106.10
2018-11-07T22:21:07.774Z,112.37
2018-11-07T22:23:37.155Z,96.10
2018-11-07T22:26:06.565Z,106.47
2018-11-07T22:28:36.426Z,116.43
2018-11-07T22:31:06.310Z,103.57
2018-11-07T22:33:35.563Z,109.73
2018-11-07T22:36:04.885Z,113.60
2018-11-07T22:38:34.383Z,109.33
2018-11-07T22:41:03.790Z,104.67
2018-11-07T22:43:33.761Z,127.87
2018-11-07T22:46:03.195Z,111.70
2018-11-07T22:48:32.715Z,120.37
2018-11-07T22:51:02.279Z,107.70
2018-11-07T22:53:31.664Z,107.50
2018-11-07T22:56:01.056Z,113.67
2018-11-07T22:58:30.430Z,112.60
2018-11-07T23:01:05.073Z,118.47
2018-11-07T23:03:34.590Z,115.67
2018-11-07T23:06:03.866Z,114.80
2018-11-07T23:08:33.185Z,116.90
2018-11-07T23:11:02.465Z,124.23
2018-11-07T23:13:31.828Z,115.93
2018-11-07T23:16:01.089Z,123.63
2018-11-07T23:18:30.371Z,119.43
2018-11-07T23:20:59.687Z,127.90
2018-11-07T23:23:28.893Z,126.97
2018-11-07T23:25:58.269Z,126.50
2018-11-07T23:28:27.585Z,125.27
2018-11-07T23:30:56.784Z,134.90
2018-11-07T23:33:26.325Z,124.33
2018-11-07T23:35:55.591Z,132.00
2018-11-07T23:38:24.842Z,126.90
2018-11-07T23:40:54.321Z,127.70
2018-11-07T23:43:23.919Z,125.93
2018-11-07T23:45:53.302Z,127.93
2018-11-07T23:48:22.739Z,122.73
2018-11-07T23:50:52.138Z,117.73
2018-11-07T23:53:21.633Z,135.57
2018-11-07T23:55:50.924Z,130.70
2018-11-07T23:58:20.233Z,114.23
